This is the latest recevied weather packets stored in our database for station/object W4JCW. If no packets are shown the sender has not sent any weather packets the latest 10 day(s).
| Time | Temp. | Humidity | Pressure | Rain* | Wind** | Luminosity | Snow |
|---|---|---|---|---|---|---|---|
| 1777417106 | 20° C | 73% | 1015.1 hPa | 0 mm | - | 39 W/m² | - |
| 1777416801 | 20° C | 73% | 1014.9 hPa | 0 mm | - | 37 W/m² | - |
| 1777416497 | 20.56° C | 71% | 1015 hPa | 0 mm | - | 38 W/m² | - |
| 1777416194 | 20.56° C | 70% | 1014.9 hPa | 0 mm | - | 44 W/m² | - |
| 1777415893 | 21.11° C | 70% | 1015.1 hPa | 0 mm | - | 57 W/m² | - |
| 1777415590 | 21.11° C | 69% | 1015.2 hPa | 0 mm | - | 63 W/m² | - |
| 1777415285 | 21.67° C | 67% | 1015.5 hPa | 0 mm | - | 71 W/m² | - |
| 1777414980 | 21.67° C | 66% | 1015.3 hPa | 0 mm | - | 140 W/m² | - |
| 1777414680 | 21.67° C | 68% | 1015.5 hPa | 0 mm | - | 264 W/m² | - |
| 1777414376 | 21.11° C | 70% | 1015.8 hPa | 0 mm | - | 318 W/m² | - |
| 1777414076 | 20.56° C | 70% | 1016 hPa | 0 mm | - | 149 W/m² | - |
| 1777413776 | 21.11° C | 69% | 1016 hPa | 0 mm | - | 140 W/m² | - |
| 1777413471 | 21.11° C | 68% | 1016.1 hPa | 0 mm | - | 147 W/m² | - |
| 1777413168 | 21.67° C | 67% | 1016 hPa | 0 mm | - | 124 W/m² | - |
| 1777412863 | 21.67° C | 67% | 1016.3 hPa | 0 mm | - | 253 W/m² | - |
| 1777412563 | 22.22° C | 65% | 1016.2 hPa | 0 mm | - | 374 W/m² | - |
| 1777412261 | 22.22° C | 65% | 1016.2 hPa | 0 mm | - | 347 W/m² | - |
| 1777411957 | 22.22° C | 65% | 1016.2 hPa | 0 mm | - | 370 W/m² | - |
| 1777411656 | 22.22° C | 68% | 1016.2 hPa | 0 mm | - | 411 W/m² | - |
| 1777411351 | 21.67° C | 67% | 1016.1 hPa | 0 mm | - | 420 W/m² | - |
| 1777411050 | 21.67° C | 66% | 1016.1 hPa | 0 mm | - | 286 W/m² | - |
| 1777410745 | 21.67° C | 67% | 1016 hPa | 0 mm | - | 377 W/m² | - |
| 1777410439 | 21.11° C | 67% | 1016.3 hPa | 0 mm | - | 470 W/m² | - |
| 1777410139 | 20.56° C | 70% | 1016.1 hPa | 0 mm | - | 549 W/m² | - |
| 1777409839 | 20.56° C | 68% | 1016.5 hPa | 0 mm | - | 142 W/m² | - |
* Rain latest hour (hover to see other rain measurements)
** Current wind speed in m/s (hover to see current wind gust speed)